Time;durP1;ratioP1;P1;durP2;ratioP2;P2;SDS_P1;SDS_P2;PMS_P1;PMS_P2;Temp;Humidity;BMP_temperature;BMP_pressure;BME280_temperature;BME280_humidity;BME280_pressure;Samples;Min_cycle;Max_cycle;Signal;HPM_P1;HPM_P2
2021/12/03 00:02:04;;;;;;;9.70;5.00;;;4.50;99.90;;;;;;4976258;28;20452;-52
2021/12/03 00:04:29;;;;;;;7.47;4.97;;;4.60;99.90;;;;;;4977039;28;20264;-50
2021/12/03 00:06:55;;;;;;;6.50;4.80;;;4.60;99.90;;;;;;4975331;28;20832;-51
2021/12/03 00:09:21;;;;;;;7.73;5.00;;;4.40;99.90;;;;;;4976248;28;20253;-53
2021/12/03 00:11:47;;;;;;;14.07;5.70;;;4.40;99.90;;;;;;4975716;28;20433;-55
2021/12/03 00:14:13;;;;;;;14.50;5.90;;;4.20;99.90;;;;;;4976079;28;20532;-53
2021/12/03 00:16:39;;;;;;;8.70;4.67;;;4.20;99.90;;;;;;4972991;28;20272;-54
2021/12/03 00:19:04;;;;;;;7.33;5.13;;;4.20;99.90;;;;;;4962263;28;20896;-54
2021/12/03 00:21:30;;;;;;;6.53;5.37;;;4.10;99.90;;;;;;4976843;28;20186;-55
2021/12/03 00:23:56;;;;;;;9.90;6.03;;;4.10;99.90;;;;;;4976885;28;20186;-53
2021/12/03 00:26:22;;;;;;;8.90;6.27;;;4.10;99.90;;;;;;4979751;28;20456;-53
2021/12/03 00:28:48;;;;;;;9.10;5.33;;;4.10;99.90;;;;;;4979072;28;20457;-52
2021/12/03 00:31:14;;;;;;;7.90;5.20;;;4.10;99.90;;;;;;4976798;28;20447;-52
2021/12/03 00:33:40;;;;;;;7.83;5.40;;;4.20;99.90;;;;;;4972451;28;20502;-48
2021/12/03 00:36:08;;;;;;;9.90;5.30;;;4.30;99.90;;;;;;4975892;28;20736;-50
2021/12/03 00:38:40;;;;;;;7.60;6.07;;;4.30;99.90;;;;;;4972050;28;21159;-53
2021/12/03 00:41:08;;;;;;;13.20;6.30;;;4.10;99.90;;;;;;4976242;28;20451;-51
2021/12/03 00:43:34;;;;;;;9.20;5.53;;;4.10;99.90;;;;;;4978851;28;20433;-53
2021/12/03 00:46:08;;;;;;;8.63;5.43;;;4.10;99.90;;;;;;4979417;28;20437;-54
2021/12/03 00:48:34;;;;;;;10.20;5.07;;;4.20;99.90;;;;;;4978291;28;20487;-53
2021/12/03 00:51:00;;;;;;;6.87;5.30;;;4.30;99.90;;;;;;4979351;28;20429;-55
2021/12/03 00:53:25;;;;;;;8.07;5.30;;;4.30;99.90;;;;;;4983055;28;20193;-54
2021/12/03 00:55:51;;;;;;;7.73;5.13;;;4.20;99.90;;;;;;4982287;28;20444;-54
2021/12/03 00:58:17;;;;;;;7.47;5.10;;;4.20;99.90;;;;;;4979049;28;20216;-54
2021/12/03 01:00:42;;;;;;;8.73;4.80;;;4.10;99.90;;;;;;4965810;28;20190;-51
2021/12/03 01:03:08;;;;;;;6.93;4.83;;;4.10;99.90;;;;;;4981473;28;20197;-52
2021/12/03 01:05:34;;;;;;;8.70;5.63;;;4.10;99.90;;;;;;4978416;28;20632;-55
2021/12/03 01:08:00;;;;;;;9.37;5.20;;;4.00;99.90;;;;;;4978660;28;20228;-53
2021/12/03 01:10:27;;;;;;;9.70;5.53;;;4.00;99.90;;;;;;4982227;28;20429;-52
2021/12/03 01:12:54;;;;;;;8.23;5.40;;;3.90;99.90;;;;;;4979836;28;20185;-55
2021/12/03 01:15:28;;;;;;;8.10;5.47;;;3.90;99.90;;;;;;4979849;28;20495;-54
2021/12/03 01:17:54;;;;;;;9.07;6.23;;;4.00;99.90;;;;;;4981861;28;20460;-55
2021/12/03 01:20:22;;;;;;;13.47;5.57;;;3.90;99.90;;;;;;4976144;28;21088;-56
2021/12/03 01:22:49;;;;;;;6.23;5.07;;;3.90;99.90;;;;;;4977567;28;20445;-52
2021/12/03 01:25:18;;;;;;;11.80;5.50;;;3.80;99.90;;;;;;4981178;28;20599;-54
2021/12/03 01:27:43;;;;;;;7.63;5.50;;;3.80;99.90;;;;;;4983911;28;20472;-53
2021/12/03 01:30:11;;;;;;;9.90;5.30;;;3.90;99.90;;;;;;4980878;28;20435;-53
2021/12/03 01:32:38;;;;;;;13.07;5.80;;;3.80;99.90;;;;;;4986601;28;20186;-55
2021/12/03 01:35:04;;;;;;;7.93;5.63;;;3.80;99.90;;;;;;4980665;28;21102;-55
2021/12/03 01:37:30;;;;;;;9.77;6.90;;;3.80;99.90;;;;;;4979324;28;20793;-53
2021/12/03 01:39:56;;;;;;;8.77;6.40;;;3.80;99.90;;;;;;4983651;28;20432;-53
2021/12/03 01:42:21;;;;;;;7.70;5.83;;;3.70;99.90;;;;;;4981886;28;20236;-53
2021/12/03 01:44:47;;;;;;;12.40;6.77;;;3.70;99.90;;;;;;4978819;28;20563;-56
2021/12/03 01:47:13;;;;;;;12.50;6.80;;;3.80;99.90;;;;;;4981999;28;20213;-52
2021/12/03 01:49:39;;;;;;;12.20;7.10;;;3.80;99.90;;;;;;4979440;28;20218;-52
2021/12/03 01:52:05;;;;;;;10.63;6.20;;;3.70;99.90;;;;;;4979915;28;20198;-51
2021/12/03 01:54:31;;;;;;;8.90;6.57;;;3.60;99.90;;;;;;4980408;28;20190;-55
2021/12/03 01:56:56;;;;;;;10.90;6.10;;;3.70;99.90;;;;;;4977601;28;20584;-49
2021/12/03 01:59:22;;;;;;;9.23;6.30;;;3.70;99.90;;;;;;4980530;28;20325;-51
2021/12/03 02:01:48;;;;;;;11.27;7.00;;;3.60;99.90;;;;;;4980059;28;20579;-50
2021/12/03 02:04:13;;;;;;;8.67;6.30;;;3.60;99.90;;;;;;4979450;28;20197;-52
2021/12/03 02:06:39;;;;;;;8.90;6.03;;;3.60;99.90;;;;;;4978479;28;20222;-52
2021/12/03 02:09:06;;;;;;;9.33;6.23;;;3.60;99.90;;;;;;4979490;28;20250;-54
2021/12/03 02:11:33;;;;;;;9.20;5.90;;;3.70;99.90;;;;;;4966941;28;20883;-55
2021/12/03 02:13:59;;;;;;;9.43;6.93;;;3.70;99.90;;;;;;4981788;28;20844;-54
2021/12/03 02:16:25;;;;;;;9.70;6.50;;;3.70;99.90;;;;;;4977696;28;20459;-55
2021/12/03 02:18:52;;;;;;;10.50;7.80;;;3.70;99.90;;;;;;4977839;28;20457;-56
2021/12/03 02:21:20;;;;;;;13.53;6.57;;;3.60;99.90;;;;;;4981697;28;20445;-56
2021/12/03 02:23:47;;;;;;;11.20;7.00;;;3.60;99.90;;;;;;4978312;28;20460;-53
2021/12/03 02:26:15;;;;;;;11.37;7.87;;;3.70;99.90;;;;;;4979189;28;20440;-54
2021/12/03 02:28:47;;;;;;;10.07;6.50;;;3.60;99.90;;;;;;4977885;28;20468;-54
2021/12/03 02:31:15;;;;;;;11.27;7.20;;;3.40;99.90;;;;;;4975152;28;20492;-52
2021/12/03 02:33:42;;;;;;;8.70;5.87;;;3.50;99.90;;;;;;4978526;28;20441;-53
2021/12/03 02:36:08;;;;;;;14.87;7.70;;;3.40;99.90;;;;;;4977074;28;20445;-53
2021/12/03 02:38:34;;;;;;;9.47;6.30;;;3.40;99.90;;;;;;4978469;28;20469;-49
2021/12/03 02:40:59;;;;;;;10.47;7.20;;;3.40;99.90;;;;;;4977555;28;20449;-56
2021/12/03 02:43:26;;;;;;;8.80;6.40;;;3.40;99.90;;;;;;4977826;28;20269;-52
2021/12/03 02:45:52;;;;;;;8.53;6.10;;;3.30;99.90;;;;;;4982028;28;20186;-54
2021/12/03 02:48:20;;;;;;;9.27;6.00;;;3.20;99.90;;;;;;4975978;28;20478;-55
2021/12/03 02:50:46;;;;;;;10.57;6.20;;;3.20;99.90;;;;;;4983550;28;21243;-49
2021/12/03 02:53:12;;;;;;;10.23;6.83;;;3.20;99.90;;;;;;4976127;28;20469;-50
2021/12/03 02:55:38;;;;;;;12.60;7.60;;;3.20;99.90;;;;;;4978513;28;20488;-49
2021/12/03 02:58:04;;;;;;;10.47;7.47;;;3.10;99.90;;;;;;4977129;28;20465;-55
2021/12/03 03:00:31;;;;;;;12.30;6.57;;;3.10;99.90;;;;;;4976988;28;20194;-56
2021/12/03 03:02:57;;;;;;;11.40;7.57;;;3.00;99.90;;;;;;4979684;28;20447;-55
2021/12/03 03:05:25;;;;;;;9.83;6.60;;;2.90;99.90;;;;;;4961060;28;20445;-53
2021/12/03 03:07:51;;;;;;;11.00;7.47;;;2.90;99.90;;;;;;4980230;28;20477;-55
2021/12/03 03:10:24;;;;;;;14.53;7.27;;;2.80;99.90;;;;;;4979792;28;20456;-53
2021/12/03 03:12:50;;;;;;;14.27;7.77;;;2.70;99.90;;;;;;4976999;28;20885;-55
2021/12/03 03:15:17;;;;;;;13.53;7.80;;;2.70;99.90;;;;;;4976200;28;20448;-55
2021/12/03 03:17:44;;;;;;;12.47;7.60;;;2.70;99.90;;;;;;4981507;28;20462;-54
2021/12/03 03:20:10;;;;;;;12.67;7.70;;;2.60;99.90;;;;;;4977446;28;20529;-53
2021/12/03 03:22:40;;;;;;;15.53;8.60;;;2.70;99.90;;;;;;4974939;28;20446;-53
2021/12/03 03:25:09;;;;;;;13.00;7.17;;;2.60;99.90;;;;;;4977814;28;20445;-55
2021/12/03 03:27:35;;;;;;;10.57;7.60;;;2.50;99.90;;;;;;4978198;28;20468;-55
2021/12/03 03:30:02;;;;;;;14.43;8.40;;;2.30;99.90;;;;;;4972201;28;21105;-52
2021/12/03 03:32:28;;;;;;;13.80;7.90;;;2.40;99.90;;;;;;4977352;28;20449;-54
2021/12/03 03:34:54;;;;;;;14.57;8.20;;;2.50;99.90;;;;;;4977732;28;20441;-51
2021/12/03 03:37:20;;;;;;;13.40;8.20;;;2.40;99.90;;;;;;4976038;28;21553;-51
2021/12/03 03:39:47;;;;;;;13.20;8.20;;;2.50;99.90;;;;;;4975168;28;20456;-53
2021/12/03 03:42:13;;;;;;;14.33;9.00;;;2.50;99.90;;;;;;4973658;28;20827;-54
2021/12/03 03:44:39;;;;;;;13.70;8.70;;;2.40;99.90;;;;;;4978068;28;20472;-53
2021/12/03 03:47:06;;;;;;;12.20;8.20;;;2.40;99.90;;;;;;4979049;28;20857;-51
2021/12/03 03:49:32;;;;;;;17.90;9.50;;;2.40;99.90;;;;;;4975551;28;20460;-51
2021/12/03 03:51:59;;;;;;;17.30;8.73;;;2.40;99.90;;;;;;4979572;28;20785;-53
2021/12/03 03:54:24;;;;;;;14.60;8.23;;;2.30;99.90;;;;;;4976472;28;20441;-53
2021/12/03 03:56:50;;;;;;;13.33;8.90;;;2.40;99.90;;;;;;4975990;28;20448;-54
2021/12/03 03:59:17;;;;;;;14.03;9.27;;;2.40;99.90;;;;;;4976236;28;20713;-55
2021/12/03 04:01:47;;;;;;;13.27;9.60;;;2.40;99.90;;;;;;4975187;28;20201;-54
2021/12/03 04:04:13;;;;;;;18.10;9.30;;;2.20;99.90;;;;;;4975532;28;20447;-53
2021/12/03 04:06:39;;;;;;;15.23;9.67;;;2.10;99.90;;;;;;4978941;28;20476;-53
2021/12/03 04:09:06;;;;;;;15.67;9.00;;;2.20;99.90;;;;;;4975798;28;20480;-55
2021/12/03 04:11:32;;;;;;;17.53;9.57;;;2.20;99.90;;;;;;4975749;28;20429;-57
2021/12/03 04:13:58;;;;;;;14.80;9.17;;;2.20;99.90;;;;;;4978976;28;20896;-53
2021/12/03 04:16:24;;;;;;;16.63;9.40;;;2.20;99.90;;;;;;4980299;28;20563;-51
2021/12/03 04:18:49;;;;;;;15.30;8.73;;;2.20;99.90;;;;;;4964062;28;20216;-55
2021/12/03 04:21:16;;;;;;;19.33;9.70;;;2.20;99.90;;;;;;4977606;28;20488;-56
2021/12/03 04:23:42;;;;;;;14.77;8.27;;;2.10;99.90;;;;;;4974889;28;20759;-56
2021/12/03 04:26:08;;;;;;;17.63;8.90;;;2.20;99.90;;;;;;4978703;28;20813;-52
2021/12/03 04:28:34;;;;;;;14.93;8.83;;;2.30;99.90;;;;;;4978742;28;20489;-50
2021/12/03 04:31:00;;;;;;;14.20;8.13;;;2.30;99.90;;;;;;4978004;28;20493;-53
2021/12/03 04:33:26;;;;;;;17.93;10.10;;;2.30;99.90;;;;;;4957018;28;20468;-52
2021/12/03 04:35:51;;;;;;;15.00;9.10;;;2.30;99.90;;;;;;4977031;28;20495;-50
2021/12/03 04:38:17;;;;;;;13.67;9.10;;;2.30;99.90;;;;;;4974954;28;20209;-53
2021/12/03 04:40:44;;;;;;;15.70;9.03;;;2.30;99.90;;;;;;4972816;28;20195;-55
2021/12/03 04:43:09;;;;;;;15.90;9.50;;;2.40;99.90;;;;;;4978087;28;20228;-51
2021/12/03 04:45:35;;;;;;;18.17;8.87;;;2.30;99.90;;;;;;4979155;28;20476;-55
2021/12/03 04:48:03;;;;;;;17.30;8.77;;;2.20;99.90;;;;;;4977770;28;20217;-54
2021/12/03 04:50:37;;;;;;;18.60;11.00;;;2.20;99.90;;;;;;4976025;28;20473;-49
2021/12/03 04:53:04;;;;;;;16.30;9.47;;;2.20;99.90;;;;;;4977598;28;20436;-56
2021/12/03 04:55:30;;;;;;;16.33;9.23;;;2.20;99.90;;;;;;4975154;28;20440;-49
2021/12/03 04:57:56;;;;;;;15.93;9.07;;;2.20;99.90;;;;;;4974982;28;20836;-53
2021/12/03 05:00:32;;;;;;;19.10;9.70;;;2.30;99.90;;;;;;4977718;28;20225;-53
2021/12/03 05:02:59;;;;;;;15.50;9.60;;;2.10;99.90;;;;;;4977045;28;21043;-50
2021/12/03 05:05:26;;;;;;;20.63;9.20;;;2.10;99.90;;;;;;4973120;28;20509;-54
2021/12/03 05:07:58;;;;;;;18.93;9.50;;;2.10;99.90;;;;;;4972850;28;20484;-49
2021/12/03 05:10:27;;;;;;;14.20;8.63;;;2.00;99.90;;;;;;4976848;28;20464;-49
2021/12/03 05:12:58;;;;;;;14.17;8.33;;;2.00;99.90;;;;;;4980062;28;20447;-53
2021/12/03 05:15:24;;;;;;;19.83;10.30;;;2.10;99.90;;;;;;4975664;28;20485;-53
2021/12/03 05:17:49;;;;;;;12.93;9.27;;;2.00;99.90;;;;;;4976877;28;20476;-51
2021/12/03 05:20:15;;;;;;;15.87;9.70;;;1.90;99.90;;;;;;4974449;28;20441;-54
2021/12/03 05:22:41;;;;;;;19.47;9.57;;;1.90;99.90;;;;;;4976805;28;20197;-52
2021/12/03 05:25:08;;;;;;;16.53;9.67;;;2.00;99.90;;;;;;4977143;28;20217;-53
2021/12/03 05:27:34;;;;;;;15.53;9.40;;;2.00;99.90;;;;;;4975468;28;20480;-54
2021/12/03 05:30:00;;;;;;;18.40;9.67;;;2.00;99.90;;;;;;4976620;28;20503;-53
2021/12/03 05:32:26;;;;;;;20.77;10.90;;;1.90;99.90;;;;;;4977239;28;21085;-53
2021/12/03 05:34:51;;;;;;;15.63;10.37;;;1.90;99.90;;;;;;4976298;28;20199;-54
2021/12/03 05:37:17;;;;;;;15.30;8.60;;;1.90;99.90;;;;;;4979290;28;20662;-54
2021/12/03 05:39:43;;;;;;;14.33;8.70;;;1.90;99.90;;;;;;4977824;28;20588;-56
2021/12/03 05:42:08;;;;;;;16.13;9.10;;;1.80;99.90;;;;;;4979842;28;20729;-51
2021/12/03 05:44:35;;;;;;;26.30;10.50;;;1.80;99.90;;;;;;4979576;28;20252;-51
2021/12/03 05:47:01;;;;;;;17.50;9.27;;;1.80;99.90;;;;;;4975705;28;20233;-53
2021/12/03 05:49:27;;;;;;;14.70;9.63;;;1.80;99.90;;;;;;4979043;28;21007;-53
2021/12/03 05:51:53;;;;;;;14.60;8.83;;;1.80;99.90;;;;;;4979209;28;20866;-53
2021/12/03 05:54:20;;;;;;;17.27;10.20;;;1.90;99.90;;;;;;4976801;28;20439;-55
2021/12/03 05:56:46;;;;;;;15.43;9.30;;;1.90;99.90;;;;;;4979475;28;20194;-56
2021/12/03 05:59:12;;;;;;;16.70;8.70;;;2.00;99.90;;;;;;4980398;28;20950;-54
2021/12/03 06:01:38;;;;;;;12.53;8.83;;;1.90;99.90;;;;;;4980031;28;20449;-51
2021/12/03 06:04:03;;;;;;;14.47;9.10;;;2.00;99.90;;;;;;4979514;28;20205;-52
2021/12/03 06:06:29;;;;;;;16.23;9.70;;;1.90;99.90;;;;;;4978453;28;20700;-53
2021/12/03 06:08:57;;;;;;;15.27;10.53;;;1.90;99.90;;;;;;4978049;28;20704;-55
2021/12/03 06:11:24;;;;;;;14.00;8.37;;;1.90;99.90;;;;;;4977807;28;20572;-55
2021/12/03 06:13:50;;;;;;;15.93;9.93;;;1.90;99.90;;;;;;4981958;28;20452;-51
2021/12/03 06:16:15;;;;;;;14.97;9.60;;;1.90;99.90;;;;;;4976381;28;20821;-51
2021/12/03 06:18:41;;;;;;;15.20;9.30;;;1.80;99.90;;;;;;4980975;28;20285;-50
2021/12/03 06:21:09;;;;;;;15.50;9.83;;;1.80;99.90;;;;;;4979583;28;20206;-55
2021/12/03 06:23:35;;;;;;;18.60;8.57;;;1.80;99.90;;;;;;4978575;28;20203;-52
2021/12/03 06:26:01;;;;;;;10.03;8.10;;;1.80;99.90;;;;;;4980641;28;20447;-53
2021/12/03 06:28:29;;;;;;;13.77;8.40;;;1.70;99.90;;;;;;4980206;28;20488;-52
2021/12/03 06:30:56;;;;;;;11.90;8.60;;;1.70;99.90;;;;;;4977920;28;20487;-52
2021/12/03 06:33:22;;;;;;;11.80;7.67;;;1.70;99.90;;;;;;4982205;28;20445;-52
2021/12/03 06:35:48;;;;;;;12.00;8.10;;;1.70;99.90;;;;;;4984104;28;20557;-51
2021/12/03 06:38:15;;;;;;;12.63;8.20;;;1.80;99.90;;;;;;4981821;28;21055;-52
2021/12/03 06:40:41;;;;;;;12.43;7.73;;;1.70;99.90;;;;;;4980253;28;20537;-53
2021/12/03 06:43:06;;;;;;;13.00;7.70;;;1.80;99.90;;;;;;4979896;28;20448;-54
2021/12/03 06:45:32;;;;;;;12.07;7.30;;;1.90;99.90;;;;;;4974763;28;21109;-50
2021/12/03 06:47:58;;;;;;;12.23;8.83;;;1.80;99.90;;;;;;4975647;28;20217;-53
2021/12/03 06:50:24;;;;;;;11.80;7.53;;;1.80;99.90;;;;;;4976823;28;20261;-53
2021/12/03 06:53:14;;;;;;;9.07;6.80;;;1.80;99.90;;;;;;4976893;28;20194;-50
2021/12/03 06:56:21;;;;;;;12.63;7.80;;;1.80;99.90;;;;;;4975223;28;20456;-49
2021/12/03 06:58:26;;;;;;;17.43;8.13;;;1.80;99.90;;;;;;4972945;28;20466;-51
2021/12/03 07:00:54;;;;;;;11.00;7.00;;;1.80;99.90;;;;;;4976167;28;20449;-54
2021/12/03 07:03:20;;;;;;;8.60;5.40;;;1.90;99.90;;;;;;4976833;28;20747;-51
2021/12/03 07:05:46;;;;;;;11.20;7.10;;;1.90;99.90;;;;;;4978904;28;20448;-56
2021/12/03 07:08:12;;;;;;;11.07;6.87;;;1.90;99.90;;;;;;4977830;28;20685;-50
2021/12/03 07:10:38;;;;;;;13.83;8.10;;;1.90;99.90;;;;;;4974969;28;20532;-53
2021/12/03 07:13:04;;;;;;;13.00;7.77;;;2.10;99.90;;;;;;4980452;28;20189;-55
2021/12/03 07:15:30;;;;;;;12.43;8.53;;;2.20;99.90;;;;;;4977589;28;20640;-52
2021/12/03 07:17:56;;;;;;;9.70;6.70;;;2.30;99.90;;;;;;4978569;28;20554;-53
2021/12/03 07:20:24;;;;;;;13.30;7.47;;;2.30;99.90;;;;;;4978221;28;20603;-50
2021/12/03 07:22:50;;;;;;;11.33;6.67;;;2.30;99.90;;;;;;4979574;28;20200;-51
2021/12/03 07:25:16;;;;;;;11.80;6.83;;;2.30;99.90;;;;;;4976414;28;20443;-50
2021/12/03 07:27:42;;;;;;;11.27;6.07;;;2.30;99.90;;;;;;4974109;28;20997;-51
2021/12/03 07:30:10;;;;;;;9.93;5.97;;;2.40;99.90;;;;;;4975020;28;20441;-55
2021/12/03 07:32:36;;;;;;;12.27;6.00;;;2.50;99.90;;;;;;4962873;28;20829;-55
2021/12/03 07:35:02;;;;;;;9.70;6.07;;;2.50;99.90;;;;;;4978453;28;20477;-56
2021/12/03 07:37:28;;;;;;;11.77;6.77;;;2.50;99.90;;;;;;4974037;28;20449;-52
2021/12/03 07:39:53;;;;;;;8.00;5.70;;;2.60;99.90;;;;;;4974336;28;20450;-54
2021/12/03 07:42:19;;;;;;;9.47;6.10;;;2.60;99.90;;;;;;4976735;28;20687;-56
2021/12/03 07:44:44;;;;;;;13.00;7.57;;;2.50;99.90;;;;;;4979962;28;20202;-51
2021/12/03 07:47:10;;;;;;;8.87;5.80;;;2.60;99.90;;;;;;4978534;28;20216;-55
2021/12/03 07:49:39;;;;;;;10.83;5.13;;;2.60;99.90;;;;;;4978230;28;20217;-52
2021/12/03 07:52:05;;;;;;;7.77;5.80;;;2.60;99.90;;;;;;4977905;28;20535;-51
2021/12/03 07:54:31;;;;;;;11.17;6.43;;;2.50;99.90;;;;;;4977244;28;20580;-53
2021/12/03 07:56:56;;;;;;;9.03;5.70;;;2.60;99.90;;;;;;4979002;28;20478;-53
2021/12/03 07:59:22;;;;;;;12.63;5.87;;;2.70;99.90;;;;;;4978707;28;21282;-52
2021/12/03 08:01:48;;;;;;;8.50;6.27;;;2.70;99.90;;;;;;4976284;28;20194;-54
2021/12/03 08:04:14;;;;;;;8.87;5.10;;;2.70;99.90;;;;;;4977668;28;20776;-55
2021/12/03 08:06:40;;;;;;;8.60;4.90;;;2.70;99.90;;;;;;4974391;28;20276;-51
2021/12/03 08:09:10;;;;;;;6.43;3.87;;;2.70;99.90;;;;;;4975236;28;20833;-52
2021/12/03 08:11:38;;;;;;;6.63;4.57;;;2.70;99.90;;;;;;4977165;28;20476;-51
2021/12/03 08:14:04;;;;;;;6.50;4.60;;;2.70;99.90;;;;;;4980429;28;21051;-52
2021/12/03 08:16:29;;;;;;;5.20;4.00;;;2.70;99.90;;;;;;4974147;28;20443;-54
2021/12/03 08:18:55;;;;;;;6.87;4.47;;;2.70;99.90;;;;;;4975105;28;20593;-51
2021/12/03 08:21:21;;;;;;;11.03;5.33;;;2.80;99.90;;;;;;4975042;28;20201;-53
2021/12/03 08:23:48;;;;;;;5.77;4.20;;;2.90;99.90;;;;;;4975026;28;20205;-54
2021/12/03 08:26:14;;;;;;;8.90;5.37;;;3.00;99.90;;;;;;4981656;28;20243;-48
2021/12/03 08:28:40;;;;;;;6.00;4.20;;;2.90;99.90;;;;;;4977057;28;20488;-48
2021/12/03 08:31:05;;;;;;;8.00;4.50;;;3.00;99.90;;;;;;4977577;28;20445;-53
2021/12/03 08:33:31;;;;;;;14.33;4.37;;;3.00;99.90;;;;;;4977753;28;20218;-54
2021/12/03 08:35:57;;;;;;;5.40;4.10;;;2.90;99.90;;;;;;4976302;28;20325;-51
2021/12/03 08:38:22;;;;;;;7.20;4.27;;;2.90;99.90;;;;;;4976004;28;20231;-50
2021/12/03 08:40:48;;;;;;;5.97;4.50;;;2.80;99.90;;;;;;4968579;28;20621;-52
2021/12/03 08:43:15;;;;;;;14.40;5.97;;;2.90;99.90;;;;;;4974081;28;20679;-53
2021/12/03 08:45:40;;;;;;;7.80;5.33;;;3.00;99.90;;;;;;4973561;28;20522;-55
2021/12/03 08:48:07;;;;;;;7.90;5.23;;;3.00;99.90;;;;;;4976739;28;20598;-52
2021/12/03 08:50:36;;;;;;;7.10;4.90;;;3.10;99.90;;;;;;4973264;28;20889;-51
2021/12/03 08:53:20;;;;;;;10.40;5.50;;;3.10;99.90;;;;;;4978984;28;20429;-53
2021/12/03 08:55:47;;;;;;;7.67;5.80;;;3.30;99.90;;;;;;4972965;28;20448;-51
2021/12/03 08:58:14;;;;;;;7.67;5.17;;;3.20;99.90;;;;;;4975887;28;20463;-51
2021/12/03 09:00:40;;;;;;;7.90;5.50;;;3.20;99.90;;;;;;4975301;28;20463;-54
2021/12/03 09:03:06;;;;;;;9.90;5.90;;;3.30;99.90;;;;;;4977494;28;20432;-52
2021/12/03 09:05:34;;;;;;;8.70;6.33;;;3.30;99.90;;;;;;4973660;28;20289;-52
2021/12/03 09:08:00;;;;;;;12.57;5.67;;;3.30;99.90;;;;;;4975748;28;20925;-50
2021/12/03 09:10:26;;;;;;;13.03;7.07;;;3.30;99.90;;;;;;4980627;28;20578;-52
2021/12/03 09:12:53;;;;;;;8.10;5.43;;;3.30;99.90;;;;;;4979933;28;20445;-51
2021/12/03 09:15:26;;;;;;;15.17;7.47;;;3.40;99.90;;;;;;4965838;28;20285;-53
2021/12/03 09:25:12;;;;;;;12.20;6.90;;;3.60;99.90;;;;;;4979506;28;20194;-52
2021/12/03 09:27:38;;;;;;;11.23;5.20;;;3.70;99.90;;;;;;4977534;28;20481;-52
2021/12/03 09:30:07;;;;;;;13.60;6.60;;;3.80;99.90;;;;;;4979089;28;20456;-53
2021/12/03 09:32:33;;;;;;;9.90;7.10;;;3.80;99.90;;;;;;4979693;28;20182;-51
2021/12/03 09:35:00;;;;;;;11.87;6.93;;;3.90;99.90;;;;;;4979278;28;20500;-49
2021/12/03 09:37:26;;;;;;;9.17;5.30;;;3.70;99.90;;;;;;4980912;28;21321;-51
2021/12/03 09:39:52;;;;;;;12.90;6.60;;;3.70;99.90;;;;;;4975884;28;20475;-51
2021/12/03 09:42:19;;;;;;;8.40;6.30;;;3.60;99.90;;;;;;4979374;28;20579;-48
2021/12/03 09:44:46;;;;;;;8.87;6.53;;;3.60;99.90;;;;;;4978331;28;20956;-50
2021/12/03 09:47:14;;;;;;;12.33;7.13;;;3.70;99.90;;;;;;4976278;28;20908;-49
2021/12/03 09:49:40;;;;;;;9.43;5.63;;;3.80;99.90;;;;;;4966344;28;20464;-52
2021/12/03 09:52:13;;;;;;;8.73;6.30;;;3.90;99.90;;;;;;4981691;28;20437;-51
2021/12/03 09:54:42;;;;;;;8.80;6.10;;;3.90;99.90;;;;;;4979517;28;20824;-50
2021/12/03 09:57:15;;;;;;;11.70;6.97;;;3.90;99.90;;;;;;4979081;28;20521;-51
2021/12/03 10:13:24;;;;;;;11.10;7.60;;;3.90;99.90;;;;;;4980404;28;20629;-53
2021/12/03 10:30:09;;;;;;;8.43;6.60;;;4.20;99.90;;;;;;4978601;28;20434;-51
2021/12/03 10:32:45;;;;;;;7.43;5.40;;;4.20;99.90;;;;;;4980426;28;20520;-54
2021/12/03 10:51:35;;;;;;;5.80;4.80;;;4.50;99.90;;;;;;4979604;28;20441;-53
2021/12/03 11:13:00;;;;;;;4.83;4.33;;;4.70;99.90;;;;;;4977496;28;21180;-51
2021/12/03 11:33:44;;;;;;;7.93;4.93;;;4.60;99.90;;;;;;4980961;28;20435;-56
2021/12/03 11:57:34;;;;;;;6.07;4.40;;;5.00;99.90;;;;;;4977165;28;20444;-48
2021/12/03 14:02:36;;;;;;;6.63;4.50;;;5.30;99.90;;;;;;4982219;28;20436;-56
2021/12/03 14:08:06;;;;;;;5.93;4.43;;;5.40;99.90;;;;;;4977792;28;20467;-53
2021/12/03 14:40:50;;;;;;;13.10;7.10;;;5.30;99.90;;;;;;4976402;28;20535;-53
2021/12/03 14:48:55;;;;;;;6.50;5.60;;;5.30;99.90;;;;;;4978355;28;20229;-53
2021/12/03 14:56:36;;;;;;;6.93;4.17;;;5.00;99.90;;;;;;4976369;28;20457;-49
2021/12/03 14:59:25;;;;;;;8.03;5.13;;;4.90;99.90;;;;;;4976659;28;20457;-49
2021/12/03 15:02:06;;;;;;;5.10;3.93;;;4.90;99.90;;;;;;4977122;28;20505;-55
2021/12/03 15:04:56;;;;;;;6.60;3.97;;;5.00;99.90;;;;;;4974555;28;20511;-53
2021/12/03 15:07:30;;;;;;;8.83;5.00;;;4.90;99.90;;;;;;4974455;28;20471;-54
2021/12/03 15:09:56;;;;;;;8.20;3.53;;;4.90;99.90;;;;;;4971215;28;20548;-54
2021/12/03 15:21:11;;;;;;;5.77;3.90;;;4.90;99.90;;;;;;4969330;28;20457;-53
2021/12/03 15:29:09;;;;;;;4.63;4.10;;;4.80;99.90;;;;;;4972226;28;20559;-55
2021/12/03 15:31:43;;;;;;;7.00;3.87;;;4.80;99.90;;;;;;4973599;28;20433;-53
2021/12/03 15:34:22;;;;;;;4.87;3.80;;;4.70;99.90;;;;;;4977032;28;20425;-53
2021/12/03 15:53:07;;;;;;;5.63;3.90;;;4.60;99.90;;;;;;4972120;28;20528;-51
2021/12/03 16:08:29;;;;;;;6.67;3.47;;;4.60;99.90;;;;;;4969763;28;20859;-49
2021/12/03 16:46:16;;;;;;;6.27;4.27;;;4.60;99.90;;;;;;4968073;28;20528;-51
2021/12/03 16:51:29;;;;;;;4.10;3.70;;;4.60;99.90;;;;;;4970521;28;20452;-54
2021/12/03 16:54:04;;;;;;;6.57;4.70;;;4.70;99.90;;;;;;4970466;28;20547;-55
2021/12/03 16:56:30;;;;;;;6.90;5.10;;;4.70;99.90;;;;;;4970229;28;20449;-57
2021/12/03 16:58:58;;;;;;;10.03;6.13;;;4.70;99.90;;;;;;4968133;28;21505;-55
2021/12/03 17:01:43;;;;;;;9.10;5.57;;;4.70;99.90;;;;;;4968532;28;20201;-55
2021/12/03 17:14:56;;;;;;;7.20;4.77;;;4.70;99.90;;;;;;4974780;28;20818;-51
2021/12/03 17:18:25;;;;;;;9.73;4.53;;;4.70;99.90;;;;;;4974633;28;20484;-54
2021/12/03 17:57:35;;;;;;;5.10;3.87;;;4.60;99.90;;;;;;4977868;28;20441;-52
2021/12/03 18:00:05;;;;;;;7.37;4.43;;;4.60;99.90;;;;;;4973722;28;20437;-51
2021/12/03 18:02:37;;;;;;;11.00;5.17;;;4.60;99.90;;;;;;4975718;28;20846;-55
2021/12/03 18:05:20;;;;;;;6.80;4.77;;;4.60;99.90;;;;;;4979203;28;20469;-53
2021/12/03 18:13:30;;;;;;;7.53;3.80;;;4.70;99.90;;;;;;4980451;28;20434;-55
2021/12/03 18:43:37;;;;;;;11.80;6.60;;;4.80;99.90;;;;;;4979027;28;20443;-50
2021/12/03 18:46:55;;;;;;;14.73;6.60;;;4.80;99.90;;;;;;4980241;28;20467;-49
2021/12/03 18:49:15;;;;;;;14.93;7.37;;;4.80;99.90;;;;;;4976836;28;20473;-51
2021/12/03 18:56:51;;;;;;;9.53;5.20;;;4.90;99.90;;;;;;4976834;28;21189;-52
2021/12/03 18:59:17;;;;;;;11.13;5.00;;;4.80;99.90;;;;;;4980234;28;20453;-54
2021/12/03 19:01:44;;;;;;;7.10;3.87;;;4.80;99.90;;;;;;4980520;28;20421;-53
2021/12/03 19:12:05;;;;;;;12.93;7.37;;;4.80;99.90;;;;;;4977704;28;20444;-51
2021/12/03 19:14:34;;;;;;;15.07;7.53;;;4.90;99.90;;;;;;4977361;28;20186;-52
2021/12/03 19:17:00;;;;;;;7.10;3.33;;;4.80;99.90;;;;;;4974642;28;20471;-53
2021/12/03 19:19:28;;;;;;;4.40;3.10;;;4.90;99.90;;;;;;4976730;28;20540;-55
2021/12/03 19:21:57;;;;;;;4.77;3.40;;;4.80;99.90;;;;;;4979269;28;20212;-56
2021/12/03 19:24:22;;;;;;;6.00;3.73;;;4.80;99.90;;;;;;4977660;28;20460;-55
2021/12/03 19:26:48;;;;;;;5.10;4.07;;;4.90;99.90;;;;;;4974536;28;20940;-54
2021/12/03 19:29:19;;;;;;;7.73;3.60;;;4.90;99.90;;;;;;4975343;28;20787;-53
2021/12/03 19:31:50;;;;;;;4.07;3.33;;;4.80;99.90;;;;;;4974408;28;20579;-50
2021/12/03 19:34:18;;;;;;;5.23;4.30;;;4.90;99.90;;;;;;4973787;28;20426;-53
2021/12/03 19:36:44;;;;;;;6.30;4.03;;;4.80;99.90;;;;;;4972955;28;20454;-51
2021/12/03 19:39:11;;;;;;;9.00;5.80;;;4.90;99.90;;;;;;4976076;28;20496;-51
2021/12/03 19:44:16;;;;;;;7.37;4.00;;;5.00;99.90;;;;;;4972274;28;20428;-50
2021/12/03 19:46:46;;;;;;;5.03;3.40;;;5.10;99.90;;;;;;4973851;28;20972;-50
2021/12/03 19:49:18;;;;;;;4.47;3.30;;;5.00;99.90;;;;;;4975025;28;20481;-52
2021/12/03 19:51:56;;;;;;;5.20;3.70;;;5.00;99.90;;;;;;4974137;28;20526;-48
2021/12/03 19:54:23;;;;;;;3.40;2.83;;;5.00;99.90;;;;;;4973861;28;20968;-51
2021/12/03 19:56:49;;;;;;;4.03;2.87;;;5.00;99.90;;;;;;4972538;28;20433;-52
2021/12/03 19:59:16;;;;;;;5.07;3.20;;;5.00;99.90;;;;;;4976027;28;22829;-52
2021/12/03 20:01:42;;;;;;;6.30;3.53;;;5.00;99.90;;;;;;4972187;28;20544;-53
2021/12/03 20:04:08;;;;;;;4.87;3.07;;;5.00;99.90;;;;;;4975977;28;20921;-54
2021/12/03 20:06:35;;;;;;;4.13;2.60;;;4.90;99.90;;;;;;4977545;28;20209;-47
2021/12/03 20:09:03;;;;;;;3.70;2.70;;;5.00;99.90;;;;;;4960965;28;20491;-51
2021/12/03 20:11:41;;;;;;;3.90;2.83;;;5.00;99.90;;;;;;4975779;28;20883;-49
2021/12/03 20:14:11;;;;;;;2.63;2.30;;;5.00;99.90;;;;;;4977271;28;20809;-53
2021/12/03 20:21:41;;;;;;;3.10;2.60;;;5.10;99.90;;;;;;4976349;28;20441;-54
2021/12/03 20:24:22;;;;;;;3.50;2.60;;;5.10;99.90;;;;;;4975478;28;20437;-54
2021/12/03 20:29:20;;;;;;;4.30;2.60;;;5.10;99.90;;;;;;4977798;28;20476;-53
2021/12/03 20:31:57;;;;;;;2.87;2.50;;;5.20;99.90;;;;;;4974556;28;20186;-51
2021/12/03 20:36:50;;;;;;;4.60;2.63;;;5.40;99.90;;;;;;4974775;28;20527;-53
2021/12/03 20:39:23;;;;;;;3.90;2.40;;;5.50;99.90;;;;;;4978326;28;20750;-49